Aviation Digital Data Service (ADDS)

Output produced by METARs form (0855 UTC 19 November 2018)
found at http://www.aviationweather.gov/metar/data/
 
RJOT 190800Z 24005KT 9999 FEW020 SCT035 BKN050 12/09 Q1017
TAF RJOT 190507Z 1906/2012 26006KT 9999 FEW025 BKN040 
     BECMG 2009/2012 15005KT